createdAt,value
2024-02-15T00:00:15.207Z,55.11
2024-02-15T00:01:15.296Z,58.77
2024-02-15T00:02:15.304Z,52.69
2024-02-15T00:03:15.472Z,53.78
2024-02-15T00:04:15.505Z,54.05
2024-02-15T00:05:15.540Z,55.52
2024-02-15T00:06:15.634Z,53.93
2024-02-15T00:07:15.756Z,56.30
2024-02-15T00:08:15.744Z,56.06
2024-02-15T00:09:15.866Z,56.20
2024-02-15T00:10:15.892Z,54.58
2024-02-15T00:11:15.973Z,55.67
2024-02-15T00:12:16.057Z,54.82
2024-02-15T00:13:16.127Z,56.85
2024-02-15T00:14:16.180Z,56.48
2024-02-15T00:15:16.290Z,52.00
2024-02-15T00:16:16.377Z,53.82
2024-02-15T00:17:16.397Z,54.49
2024-02-15T00:18:16.540Z,51.55
2024-02-15T00:19:16.742Z,55.47
2024-02-15T00:20:16.633Z,52.06
2024-02-15T00:21:16.699Z,53.36
2024-02-15T00:22:16.773Z,55.31
2024-02-15T00:23:16.857Z,57.70
2024-02-15T00:24:16.972Z,56.39
2024-02-15T00:25:16.985Z,57.19
2024-02-15T00:26:17.051Z,56.38
2024-02-15T00:27:17.175Z,54.02
2024-02-15T00:28:17.202Z,55.85
2024-02-15T00:29:17.300Z,54.62
2024-02-15T00:30:17.428Z,55.09
2024-02-15T00:31:17.393Z,54.28
2024-02-15T00:32:17.480Z,54.09
2024-02-15T00:33:17.766Z,56.07
2024-02-15T00:34:17.843Z,55.50
2024-02-15T00:35:17.789Z,54.63
2024-02-15T00:36:17.818Z,52.09
2024-02-15T00:37:17.864Z,55.73
2024-02-15T00:38:17.922Z,55.53
2024-02-15T00:39:18.012Z,56.15
2024-02-15T00:40:18.068Z,55.61
2024-02-15T00:41:18.155Z,53.25
2024-02-15T00:42:18.242Z,53.44
2024-02-15T00:43:18.311Z,54.85
2024-02-15T00:44:18.385Z,55.92
2024-02-15T00:45:18.558Z,56.88
2024-02-15T00:46:18.485Z,53.34
2024-02-15T00:47:18.590Z,53.79
2024-02-15T00:48:18.744Z,56.74
2024-02-15T00:49:18.844Z,56.38
2024-02-15T00:50:18.979Z,54.59
2024-02-15T00:51:18.846Z,56.89
2024-02-15T00:52:18.938Z,55.78
2024-02-15T00:53:18.996Z,55.63
2024-02-15T00:54:19.065Z,55.23
2024-02-15T00:55:19.135Z,53.54
2024-02-15T00:56:19.213Z,53.86
2024-02-15T00:57:19.268Z,55.17
2024-02-15T00:58:19.353Z,54.03
2024-02-15T00:59:19.429Z,53.90
2024-02-15T01:00:19.524Z,53.67
2024-02-15T01:01:19.596Z,53.27
2024-02-15T01:02:19.643Z,55.99
2024-02-15T01:03:19.728Z,54.63
2024-02-15T01:04:19.789Z,57.06
2024-02-15T01:05:19.850Z,54.82
2024-02-15T01:06:20.000Z,53.90
2024-02-15T01:07:19.949Z,53.22
2024-02-15T01:08:20.040Z,52.18
2024-02-15T01:09:20.085Z,55.23
2024-02-15T01:10:20.180Z,54.55
2024-02-15T01:11:20.247Z,52.34
2024-02-15T01:12:20.316Z,54.88
2024-02-15T01:13:20.387Z,55.25
2024-02-15T01:14:20.471Z,55.20
2024-02-15T01:15:20.619Z,55.40
2024-02-15T01:16:20.616Z,54.17
2024-02-15T01:17:20.704Z,56.15
2024-02-15T01:18:20.898Z,53.49
2024-02-15T01:19:20.912Z,52.67
2024-02-15T01:20:20.887Z,54.56
2024-02-15T01:21:20.940Z,55.70
2024-02-15T01:22:21.004Z,56.03
2024-02-15T01:23:21.096Z,56.03
2024-02-15T01:24:21.147Z,54.43
2024-02-15T01:25:21.221Z,55.00
2024-02-15T01:26:21.262Z,53.88
2024-02-15T01:27:21.326Z,55.37
2024-02-15T01:28:21.409Z,54.57
2024-02-15T01:29:21.467Z,55.01
2024-02-15T01:30:21.536Z,54.46
2024-02-15T01:31:21.601Z,56.78
2024-02-15T01:32:21.651Z,55.60
2024-02-15T01:33:21.834Z,52.68
2024-02-15T01:34:22.092Z,54.45
2024-02-15T01:35:21.874Z,55.42
2024-02-15T01:36:21.937Z,52.67
2024-02-15T01:37:21.989Z,53.82
2024-02-15T01:38:22.064Z,54.56
2024-02-15T01:39:22.160Z,54.60
2024-02-15T01:40:22.226Z,55.53
2024-02-15T01:41:22.286Z,54.96
2024-02-15T01:42:22.359Z,53.70
2024-02-15T01:43:22.445Z,55.06
2024-02-15T01:44:22.502Z,57.22
2024-02-15T01:45:22.598Z,52.83
2024-02-15T01:46:22.659Z,57.01
2024-02-15T01:47:22.749Z,57.08
2024-02-15T01:48:22.914Z,55.69
2024-02-15T01:49:22.934Z,56.01
2024-02-15T01:50:22.921Z,58.38
2024-02-15T01:51:22.993Z,57.20
2024-02-15T01:52:23.121Z,54.83
2024-02-15T01:53:23.127Z,54.44
2024-02-15T01:54:23.212Z,55.38
2024-02-15T01:55:23.270Z,55.07
2024-02-15T01:56:23.338Z,52.66
2024-02-15T01:57:23.406Z,55.33
2024-02-15T01:58:23.494Z,53.60
2024-02-15T01:59:23.546Z,56.21
2024-02-15T02:00:23.603Z,54.42
2024-02-15T02:01:23.742Z,54.13
2024-02-15T02:02:23.729Z,56.55
2024-02-15T02:03:23.867Z,57.14
2024-02-15T02:04:23.875Z,54.35
2024-02-15T02:05:23.933Z,57.61
2024-02-15T02:06:46.221Z,56.45
2024-02-15T02:07:24.036Z,56.67
2024-02-15T02:08:24.202Z,56.85
2024-02-15T02:09:24.016Z,58.47
2024-02-15T02:10:24.021Z,59.86
2024-02-15T02:11:24.009Z,61.60
2024-02-15T02:12:24.012Z,60.59
2024-02-15T02:13:24.237Z,63.36
2024-02-15T02:14:24.019Z,64.11
2024-02-15T02:15:24.012Z,62.75
2024-02-15T02:16:24.034Z,59.98
2024-02-15T02:17:24.061Z,58.06
2024-02-15T02:18:24.273Z,57.93
2024-02-15T02:19:24.183Z,58.71
2024-02-15T02:20:24.136Z,58.36
2024-02-15T02:21:24.058Z,56.23
2024-02-15T02:22:24.043Z,56.22
2024-02-15T02:23:24.137Z,57.62
2024-02-15T02:24:24.037Z,60.70
2024-02-15T02:25:24.050Z,60.02
2024-02-15T02:26:24.071Z,57.18
2024-02-15T02:27:24.044Z,58.77
2024-02-15T02:28:24.074Z,54.85
2024-02-15T02:29:24.065Z,57.24
2024-02-15T02:30:24.039Z,58.69
2024-02-15T02:31:24.054Z,59.14
2024-02-15T02:32:24.141Z,55.57
2024-02-15T02:33:24.397Z,56.55
2024-02-15T02:34:24.159Z,57.16
2024-02-15T02:35:24.058Z,56.93
2024-02-15T02:36:24.048Z,54.96
2024-02-15T02:37:24.065Z,58.53
2024-02-15T02:38:24.070Z,56.75
2024-02-15T02:39:24.137Z,56.58
2024-02-15T02:40:24.071Z,55.16
2024-02-15T02:41:24.066Z,56.98
2024-02-15T02:42:24.068Z,55.12
2024-02-15T02:43:24.067Z,56.20
2024-02-15T02:44:24.081Z,57.86
2024-02-15T02:45:24.704Z,56.41
2024-02-15T02:46:24.085Z,54.24
2024-02-15T02:47:24.097Z,57.77
2024-02-15T02:48:24.137Z,54.81
2024-02-15T02:49:24.142Z,56.17
2024-02-15T02:50:24.188Z,56.10
2024-02-15T02:51:24.071Z,56.83
2024-02-15T02:52:24.103Z,55.01
2024-02-15T02:53:24.088Z,54.19
2024-02-15T02:54:24.079Z,57.64
2024-02-15T02:55:24.106Z,56.66
2024-02-15T02:56:24.080Z,55.15
2024-02-15T02:57:24.095Z,54.83
2024-02-15T02:58:24.112Z,57.55
2024-02-15T02:59:24.135Z,58.41
2024-02-15T03:00:24.413Z,57.42
2024-02-15T03:01:24.256Z,55.26
2024-02-15T03:02:24.292Z,55.35
2024-02-15T03:03:24.369Z,57.70
2024-02-15T03:04:24.418Z,54.55
2024-02-15T03:05:24.426Z,54.88
2024-02-15T03:06:24.521Z,57.91
2024-02-15T03:07:24.523Z,54.24
2024-02-15T03:08:24.544Z,54.72
2024-02-15T03:09:24.578Z,57.49
2024-02-15T03:10:24.625Z,56.44
2024-02-15T03:11:24.696Z,54.33
2024-02-15T03:12:24.777Z,55.17
2024-02-15T03:13:24.799Z,57.56
2024-02-15T03:14:24.845Z,55.28
2024-02-15T03:15:24.880Z,52.32
2024-02-15T03:16:24.944Z,56.98
2024-02-15T03:17:25.035Z,57.00
2024-02-15T03:18:25.083Z,54.03
2024-02-15T03:19:25.145Z,56.19
2024-02-15T03:20:25.575Z,58.10
2024-02-15T03:21:25.202Z,55.14
2024-02-15T03:22:25.262Z,58.23
2024-02-15T03:23:25.313Z,55.88
2024-02-15T03:24:25.371Z,54.46
2024-02-15T03:25:25.695Z,55.05
2024-02-15T03:26:25.455Z,53.42
2024-02-15T03:27:25.525Z,52.99
2024-02-15T03:28:25.551Z,54.84
2024-02-15T03:29:25.565Z,57.29
2024-02-15T03:30:25.603Z,56.67
2024-02-15T03:31:25.641Z,57.95
2024-02-15T03:32:25.663Z,57.80
2024-02-15T03:33:25.969Z,53.94
2024-02-15T03:34:26.081Z,53.64
2024-02-15T03:35:25.760Z,56.69
2024-02-15T03:36:25.785Z,57.23
2024-02-15T03:37:25.823Z,56.94
2024-02-15T03:38:25.866Z,52.79
2024-02-15T03:39:25.872Z,55.58
2024-02-15T03:40:25.921Z,56.16
2024-02-15T03:41:25.938Z,54.95
2024-02-15T03:42:25.967Z,56.46
2024-02-15T03:43:25.973Z,53.00
2024-02-15T03:44:25.997Z,57.53
2024-02-15T03:45:26.344Z,56.10
2024-02-15T03:46:26.030Z,56.14
2024-02-15T03:47:26.071Z,57.00
2024-02-15T03:48:26.133Z,55.50
2024-02-15T03:49:26.093Z,56.80
2024-02-15T03:50:26.105Z,57.43
2024-02-15T03:51:26.117Z,55.82
2024-02-15T03:52:26.152Z,56.31
2024-02-15T03:53:26.155Z,56.47
2024-02-15T03:54:26.180Z,56.66
2024-02-15T03:55:26.192Z,54.40
2024-02-15T03:56:26.196Z,53.65
2024-02-15T03:57:26.226Z,54.04
2024-02-15T03:58:26.236Z,56.22
2024-02-15T03:59:26.358Z,56.00
2024-02-15T04:00:26.786Z,57.51
2024-02-15T04:01:26.392Z,56.72
2024-02-15T04:02:26.369Z,56.56
2024-02-15T04:03:26.406Z,54.44
2024-02-15T04:04:26.528Z,54.25
2024-02-15T04:05:26.477Z,57.00
2024-02-15T04:06:26.657Z,55.48
2024-02-15T04:07:26.549Z,54.06
2024-02-15T04:08:26.595Z,55.74
2024-02-15T04:09:26.691Z,55.08
2024-02-15T04:10:26.665Z,55.57
2024-02-15T04:11:26.689Z,55.93
2024-02-15T04:12:26.701Z,54.63
2024-02-15T04:13:26.757Z,54.64
2024-02-15T04:14:26.762Z,56.10
2024-02-15T04:15:26.795Z,57.06
2024-02-15T04:16:26.831Z,53.12
2024-02-15T04:17:26.875Z,55.10
2024-02-15T04:18:27.056Z,53.59
2024-02-15T04:19:26.975Z,55.22
2024-02-15T04:20:26.979Z,55.84
2024-02-15T04:21:27.027Z,56.54
2024-02-15T04:22:27.054Z,54.23
2024-02-15T04:23:27.109Z,56.32
2024-02-15T04:24:27.124Z,56.50
2024-02-15T04:25:27.141Z,56.58
2024-02-15T04:26:27.152Z,56.09
2024-02-15T04:27:27.169Z,54.47
2024-02-15T04:28:27.203Z,54.44
2024-02-15T04:29:27.237Z,54.74
2024-02-15T04:30:27.244Z,55.17
2024-02-15T04:31:27.321Z,57.61
2024-02-15T04:32:27.303Z,54.92
2024-02-15T04:33:27.462Z,55.03
2024-02-15T04:34:27.575Z,55.41
2024-02-15T04:35:27.446Z,52.76
2024-02-15T04:36:27.499Z,55.59
2024-02-15T04:37:27.512Z,53.04
2024-02-15T04:38:27.557Z,58.12
2024-02-15T04:39:27.577Z,54.41
2024-02-15T04:40:27.633Z,55.15
2024-02-15T04:41:34.965Z,50.00
2024-02-15T04:42:34.936Z,50.00
2024-02-15T04:43:34.947Z,50.00
2024-02-15T04:44:34.973Z,50.00
2024-02-15T04:45:34.947Z,50.00
2024-02-15T04:46:34.952Z,50.00
2024-02-15T04:47:35.032Z,50.00
2024-02-15T04:48:35.013Z,53.10
2024-02-15T04:49:35.001Z,52.76
2024-02-15T04:50:34.967Z,50.90
2024-02-15T04:51:34.956Z,53.09
2024-02-15T04:52:35.020Z,50.62
2024-02-15T04:53:34.967Z,52.24
2024-02-15T04:54:34.959Z,52.32
2024-02-15T04:55:34.967Z,51.93
2024-02-15T04:56:35.000Z,52.75
2024-02-15T04:57:34.967Z,50.93
2024-02-15T04:58:34.994Z,51.18
2024-02-15T04:59:34.973Z,54.16
2024-02-15T05:00:35.014Z,50.00
2024-02-15T05:01:34.984Z,51.35
2024-02-15T05:02:34.983Z,54.29
2024-02-15T05:03:35.031Z,55.80
2024-02-15T05:04:34.997Z,53.94
2024-02-15T05:05:35.153Z,53.90
2024-02-15T05:06:35.155Z,54.32
2024-02-15T05:07:35.072Z,54.57
2024-02-15T05:08:35.173Z,53.55
2024-02-15T05:09:35.208Z,55.98
2024-02-15T05:10:35.275Z,53.44
2024-02-15T05:11:35.356Z,54.94
2024-02-15T05:12:35.420Z,52.13
2024-02-15T05:13:35.513Z,54.31
2024-02-15T05:14:37.302Z,54.94
2024-02-15T05:15:35.573Z,56.30
2024-02-15T05:16:35.583Z,53.29
2024-02-15T05:17:35.638Z,52.06
2024-02-15T05:18:35.656Z,53.15
2024-02-15T05:19:35.595Z,51.45
2024-02-15T05:20:35.622Z,50.00
2024-02-15T05:21:35.572Z,56.41
2024-02-15T05:22:35.580Z,52.81
2024-02-15T05:23:35.604Z,50.00
2024-02-15T05:24:35.587Z,55.10
2024-02-15T05:25:35.592Z,52.44
2024-02-15T05:26:35.632Z,52.71
2024-02-15T05:27:35.585Z,55.50
2024-02-15T05:28:35.612Z,54.97
2024-02-15T05:29:35.626Z,52.67
2024-02-15T05:30:35.591Z,52.58
2024-02-15T05:31:35.596Z,54.44
2024-02-15T05:32:35.670Z,52.44
2024-02-15T05:33:35.673Z,53.09
2024-02-15T05:34:35.665Z,53.65
2024-02-15T05:35:35.641Z,54.83
2024-02-15T05:36:35.603Z,55.39
2024-02-15T05:37:35.652Z,56.57
2024-02-15T05:38:35.753Z,53.50
2024-02-15T05:39:35.633Z,54.00
2024-02-15T05:40:35.600Z,51.70
2024-02-15T05:41:35.764Z,55.39
2024-02-15T05:42:35.634Z,53.98
2024-02-15T05:43:37.893Z,50.88
2024-02-15T05:44:35.720Z,54.57
2024-02-15T05:45:35.855Z,54.77
2024-02-15T05:46:35.835Z,55.47
2024-02-15T05:47:35.991Z,53.66
2024-02-15T05:48:36.082Z,54.91
2024-02-15T05:49:36.041Z,54.57
2024-02-15T05:50:36.182Z,53.50
2024-02-15T05:51:36.287Z,54.45
2024-02-15T05:52:36.222Z,51.72
2024-02-15T05:53:36.338Z,53.28
2024-02-15T05:54:36.350Z,52.64
2024-02-15T05:55:36.419Z,55.73
2024-02-15T05:56:36.503Z,54.62
2024-02-15T05:57:36.560Z,53.38
2024-02-15T05:58:36.668Z,55.84
2024-02-15T05:59:36.717Z,56.21
2024-02-15T06:00:36.867Z,56.17
2024-02-15T06:01:36.895Z,55.84
2024-02-15T06:02:36.927Z,52.13
2024-02-15T06:03:36.999Z,54.49
2024-02-15T06:04:37.091Z,56.77
2024-02-15T06:05:37.269Z,53.46
2024-02-15T06:06:37.301Z,54.68
2024-02-15T06:07:37.380Z,53.59
2024-02-15T06:08:37.434Z,53.58
2024-02-15T06:09:37.377Z,54.59
2024-02-15T06:10:37.470Z,54.66
2024-02-15T06:11:37.527Z,53.60
2024-02-15T06:12:37.582Z,55.72
2024-02-15T06:13:37.644Z,53.00
2024-02-15T06:14:37.730Z,55.95
2024-02-15T06:15:37.783Z,53.17
2024-02-15T06:16:37.845Z,54.78
2024-02-15T06:17:37.988Z,55.96
2024-02-15T06:18:38.117Z,53.31
2024-02-15T06:19:38.062Z,52.19
2024-02-15T06:20:38.153Z,51.71
2024-02-15T06:21:38.153Z,55.85
2024-02-15T06:22:38.214Z,54.52
2024-02-15T06:23:38.530Z,54.34
2024-02-15T06:24:38.340Z,52.24
2024-02-15T06:25:38.425Z,54.38
2024-02-15T06:26:38.473Z,52.01
2024-02-15T06:27:38.532Z,55.49
2024-02-15T06:28:38.604Z,52.83
2024-02-15T06:29:38.683Z,55.49
2024-02-15T06:30:38.715Z,53.59
2024-02-15T06:31:38.769Z,53.95
2024-02-15T06:32:38.897Z,54.46
2024-02-15T06:33:38.963Z,54.28
2024-02-15T06:34:38.961Z,54.43
2024-02-15T06:35:39.015Z,55.16
2024-02-15T06:36:39.095Z,53.56
2024-02-15T06:37:39.103Z,54.78
2024-02-15T06:38:39.213Z,53.21
2024-02-15T06:39:39.279Z,52.34
2024-02-15T06:40:39.290Z,53.81
2024-02-15T06:41:39.408Z,54.51
2024-02-15T06:42:39.409Z,53.02
2024-02-15T06:43:39.468Z,55.77
2024-02-15T06:44:39.588Z,52.22
2024-02-15T06:45:39.588Z,54.04
2024-02-15T06:46:39.648Z,54.65
2024-02-15T06:47:39.870Z,54.96
2024-02-15T06:48:40.025Z,55.22
2024-02-15T06:49:39.841Z,51.17
2024-02-15T06:50:39.928Z,55.26
2024-02-15T06:51:39.937Z,53.94
2024-02-15T06:52:40.013Z,54.00
2024-02-15T06:53:40.078Z,54.09
2024-02-15T06:54:40.131Z,53.92
2024-02-15T06:55:40.184Z,55.84
2024-02-15T06:56:40.268Z,53.98
2024-02-15T06:57:40.276Z,55.22
2024-02-15T06:58:40.331Z,54.84
2024-02-15T06:59:40.426Z,51.25
2024-02-15T07:00:40.490Z,53.67
2024-02-15T07:01:40.502Z,53.55
2024-02-15T07:02:40.581Z,53.93
2024-02-15T07:03:40.641Z,55.23
2024-02-15T07:04:40.681Z,52.14
2024-02-15T07:05:40.778Z,55.10
2024-02-15T07:06:40.950Z,53.55
2024-02-15T07:07:40.918Z,52.24
2024-02-15T07:08:40.964Z,55.48
2024-02-15T07:09:40.893Z,54.82
2024-02-15T07:10:40.989Z,55.74
2024-02-15T07:11:41.032Z,52.21
2024-02-15T07:12:41.062Z,54.91
2024-02-15T07:13:41.073Z,55.06
2024-02-15T07:14:41.226Z,54.32
2024-02-15T07:15:41.222Z,55.26
2024-02-15T07:16:41.192Z,52.41
2024-02-15T07:17:41.394Z,51.62
2024-02-15T07:18:41.437Z,51.57
2024-02-15T07:19:41.344Z,55.79
2024-02-15T07:20:41.372Z,51.93
2024-02-15T07:21:41.385Z,53.95
2024-02-15T07:22:41.412Z,52.50
2024-02-15T07:23:41.467Z,50.88
2024-02-15T07:24:41.501Z,52.18
2024-02-15T07:25:41.540Z,52.02
2024-02-15T07:26:41.571Z,53.33
2024-02-15T07:27:41.566Z,51.92
2024-02-15T07:28:41.605Z,49.27
2024-02-15T07:29:41.677Z,52.62
2024-02-15T07:30:41.655Z,52.97
2024-02-15T07:31:41.704Z,53.55
2024-02-15T07:32:41.821Z,54.01
2024-02-15T07:33:41.922Z,53.01
2024-02-15T07:34:41.800Z,53.37
2024-02-15T07:35:41.823Z,52.97
2024-02-15T07:36:41.828Z,54.46
2024-02-15T07:37:41.878Z,53.87
2024-02-15T07:38:41.922Z,51.46
2024-02-15T07:39:41.894Z,49.84
2024-02-15T07:40:41.926Z,54.90
2024-02-15T07:41:42.063Z,53.62
2024-02-15T07:42:42.164Z,51.90
2024-02-15T07:43:42.261Z,53.80
2024-02-15T07:44:42.396Z,54.87
2024-02-15T07:45:42.523Z,55.47
2024-02-15T07:46:42.643Z,55.29
2024-02-15T07:47:42.890Z,54.23
2024-02-15T07:48:42.946Z,54.89
2024-02-15T07:49:43.145Z,54.76
2024-02-15T07:50:43.050Z,53.83
2024-02-15T07:51:43.163Z,52.08
2024-02-15T07:52:43.289Z,54.57
2024-02-15T07:53:43.407Z,52.67
2024-02-15T07:54:43.341Z,57.75
2024-02-15T07:55:43.472Z,54.40
2024-02-15T07:56:43.369Z,55.14
2024-02-15T07:57:46.143Z,55.22
2024-02-15T07:58:43.396Z,55.19
2024-02-15T07:59:43.529Z,56.04
2024-02-15T08:00:43.448Z,54.32
2024-02-15T08:01:43.374Z,55.50
2024-02-15T08:02:43.455Z,54.22
2024-02-15T08:03:43.400Z,56.25
2024-02-15T08:04:43.482Z,53.95
2024-02-15T08:05:43.486Z,52.59
2024-02-15T08:06:43.448Z,53.95
2024-02-15T08:07:43.414Z,56.66
2024-02-15T08:08:43.399Z,54.87
2024-02-15T08:09:44.050Z,54.85
2024-02-15T08:10:43.383Z,55.11
2024-02-15T08:11:43.460Z,54.32
2024-02-15T08:12:43.407Z,56.83
2024-02-15T08:13:43.403Z,56.27
2024-02-15T08:14:43.435Z,53.55
2024-02-15T08:15:43.377Z,54.15
2024-02-15T08:16:43.372Z,55.06
2024-02-15T08:17:43.501Z,54.99
2024-02-15T08:18:43.465Z,55.48
2024-02-15T08:19:47.070Z,55.01
2024-02-15T08:20:43.446Z,55.06
2024-02-15T08:21:43.418Z,55.52
2024-02-15T08:22:43.385Z,55.79
2024-02-15T08:23:43.488Z,55.40
2024-02-15T08:24:43.398Z,56.24
2024-02-15T08:25:43.387Z,55.10
2024-02-15T08:26:43.486Z,58.75
2024-02-15T08:27:43.389Z,56.46
2024-02-15T08:28:43.398Z,55.73
2024-02-15T08:29:43.435Z,55.66
2024-02-15T08:30:43.447Z,55.86
2024-02-15T08:31:43.431Z,56.14
2024-02-15T08:32:43.725Z,55.58
2024-02-15T08:33:43.591Z,56.29
2024-02-15T08:34:43.566Z,55.96
2024-02-15T08:35:43.596Z,56.68
2024-02-15T08:36:43.424Z,56.81
2024-02-15T08:37:43.400Z,55.05
2024-02-15T08:38:43.458Z,55.77
2024-02-15T08:39:43.401Z,56.55
2024-02-15T08:40:43.408Z,55.99
2024-02-15T08:41:43.484Z,56.93
2024-02-15T08:42:43.468Z,54.92
2024-02-15T08:43:43.530Z,58.51
2024-02-15T08:44:43.569Z,55.47
2024-02-15T08:45:43.607Z,57.29
2024-02-15T08:46:43.684Z,58.25
2024-02-15T08:47:43.760Z,53.72
2024-02-15T08:48:43.814Z,56.31
2024-02-15T08:49:43.856Z,55.75
2024-02-15T08:50:43.854Z,56.21
2024-02-15T08:51:43.882Z,56.19
2024-02-15T08:52:43.868Z,56.00
2024-02-15T08:53:43.930Z,56.89
2024-02-15T08:54:43.939Z,57.37
2024-02-15T08:55:43.991Z,58.12
2024-02-15T08:56:44.050Z,58.23
2024-02-15T08:57:44.057Z,57.41
2024-02-15T08:58:44.121Z,58.55
2024-02-15T08:59:44.197Z,56.28
2024-02-15T09:00:44.228Z,57.02
2024-02-15T09:01:44.210Z,56.68
2024-02-15T09:02:44.272Z,57.17
2024-02-15T09:03:44.382Z,60.73
2024-02-15T09:04:45.521Z,56.92
2024-02-15T09:05:44.529Z,60.02
2024-02-15T09:06:44.533Z,57.88
2024-02-15T09:07:44.521Z,57.98
2024-02-15T09:08:44.464Z,58.38
2024-02-15T09:09:44.512Z,58.56
2024-02-15T09:10:44.498Z,60.11
2024-02-15T09:11:44.577Z,58.97
2024-02-15T09:12:44.589Z,58.29
2024-02-15T09:13:44.600Z,59.49
2024-02-15T09:14:44.626Z,60.49
2024-02-15T09:15:44.648Z,56.84
2024-02-15T09:16:44.685Z,59.74
2024-02-15T09:17:44.848Z,58.07
2024-02-15T09:18:44.810Z,58.23
2024-02-15T09:19:44.861Z,59.58
2024-02-15T09:20:44.846Z,60.82
2024-02-15T09:21:44.862Z,62.65
2024-02-15T09:22:44.895Z,63.84
2024-02-15T09:23:44.975Z,61.28
2024-02-15T09:24:44.970Z,61.18
2024-02-15T09:25:45.018Z,61.52
2024-02-15T09:26:45.111Z,58.95
2024-02-15T09:27:45.078Z,60.34
2024-02-15T09:28:45.117Z,61.04
2024-02-15T09:29:45.179Z,58.88
2024-02-15T09:30:45.212Z,60.43
2024-02-15T09:31:45.207Z,62.01
2024-02-15T09:32:45.507Z,59.92
2024-02-15T09:33:45.354Z,60.59
2024-02-15T09:34:45.348Z,63.76
2024-02-15T09:35:45.388Z,62.79
2024-02-15T09:36:45.388Z,64.10
2024-02-15T09:37:45.423Z,60.49
2024-02-15T09:38:45.472Z,59.91
2024-02-15T09:39:45.516Z,62.25
2024-02-15T09:40:45.595Z,60.76
2024-02-15T09:41:45.586Z,63.92
2024-02-15T09:42:45.567Z,60.96
2024-02-15T09:43:45.562Z,60.24
2024-02-15T09:44:45.656Z,62.36
2024-02-15T09:45:45.617Z,64.54
2024-02-15T09:46:45.615Z,63.34
2024-02-15T09:47:45.719Z,62.88
2024-02-15T09:48:45.749Z,62.27
2024-02-15T09:49:45.747Z,63.40
2024-02-15T09:50:45.704Z,63.89
2024-02-15T09:51:45.691Z,63.30
2024-02-15T09:52:45.686Z,63.28
2024-02-15T09:53:45.822Z,62.56
2024-02-15T09:54:45.706Z,62.14
2024-02-15T09:55:45.705Z,64.61
2024-02-15T09:56:45.746Z,65.95
2024-02-15T09:57:45.749Z,66.05
2024-02-15T09:58:45.762Z,64.77
2024-02-15T09:59:46.011Z,64.72
2024-02-15T10:00:45.848Z,64.93
2024-02-15T10:01:45.880Z,64.36
2024-02-15T10:02:46.434Z,67.13
2024-02-15T10:03:46.041Z,65.53
2024-02-15T10:04:49.248Z,65.81
2024-02-15T10:05:46.138Z,65.84
2024-02-15T10:06:46.144Z,66.34
2024-02-15T10:07:46.334Z,66.32
2024-02-15T10:08:46.108Z,67.94
2024-02-15T10:09:46.060Z,70.23
2024-02-15T10:10:46.122Z,69.60
2024-02-15T10:11:46.066Z,69.54
2024-02-15T10:12:46.270Z,69.02
2024-02-15T10:13:46.223Z,71.32
2024-02-15T10:14:46.081Z,66.42
2024-02-15T10:15:46.101Z,69.88
2024-02-15T10:16:46.061Z,72.05
2024-02-15T10:17:46.132Z,69.80
2024-02-15T10:18:46.244Z,69.73
2024-02-15T10:19:46.164Z,70.65
2024-02-15T10:20:46.652Z,69.91
2024-02-15T10:21:47.898Z,73.00
2024-02-15T10:22:46.161Z,71.92
2024-02-15T10:23:46.250Z,72.95
2024-02-15T10:24:46.244Z,72.26
2024-02-15T10:25:46.272Z,72.66
2024-02-15T10:26:46.362Z,72.38
2024-02-15T10:27:48.056Z,72.91
2024-02-15T10:28:46.416Z,72.22
2024-02-15T10:29:46.510Z,71.49
2024-02-15T10:30:47.258Z,72.54
2024-02-15T10:31:46.549Z,72.97
2024-02-15T10:32:46.668Z,72.05
2024-02-15T10:33:46.729Z,73.54
2024-02-15T10:34:46.674Z,73.33
2024-02-15T10:35:46.705Z,73.94
2024-02-15T10:36:46.715Z,72.23
2024-02-15T10:37:46.728Z,74.69
2024-02-15T10:38:46.845Z,74.20
2024-02-15T10:39:46.810Z,74.70
2024-02-15T10:40:46.826Z,73.59
2024-02-15T10:41:46.905Z,75.03
2024-02-15T10:42:47.027Z,75.93
2024-02-15T10:43:48.099Z,73.55
2024-02-15T10:44:46.956Z,74.24
2024-02-15T10:45:46.962Z,75.24
2024-02-15T10:46:46.966Z,76.12
2024-02-15T10:47:47.070Z,74.02
2024-02-15T10:48:47.136Z,75.65
2024-02-15T10:49:48.734Z,74.92
2024-02-15T10:50:47.228Z,76.66
2024-02-15T10:51:47.087Z,76.09
2024-02-15T10:52:47.092Z,77.25
2024-02-15T10:53:47.200Z,76.49
2024-02-15T10:54:47.706Z,72.62
2024-02-15T10:55:47.979Z,76.68
2024-02-15T10:56:47.163Z,78.76
2024-02-15T10:57:47.166Z,74.45
2024-02-15T10:58:47.168Z,77.82
2024-02-15T10:59:47.253Z,78.48
2024-02-15T11:00:47.239Z,77.16
2024-02-15T11:01:49.428Z,77.90
2024-02-15T11:02:47.313Z,78.33
2024-02-15T11:03:47.252Z,78.49
2024-02-15T11:04:47.262Z,77.11
2024-02-15T11:05:47.650Z,77.74
2024-02-15T11:06:47.498Z,77.14
2024-02-15T11:07:47.497Z,79.11
2024-02-15T11:08:47.376Z,80.11
2024-02-15T11:09:47.388Z,79.69
2024-02-15T11:10:47.444Z,80.81
2024-02-15T11:11:47.473Z,77.92
2024-02-15T11:12:49.338Z,80.26
2024-02-15T11:13:47.502Z,79.66
2024-02-15T11:14:47.485Z,80.07
2024-02-15T11:15:47.487Z,79.82
2024-02-15T11:16:47.470Z,80.73
2024-02-15T11:17:47.569Z,77.79
2024-02-15T11:18:47.679Z,78.97
2024-02-15T11:19:47.614Z,78.39
2024-02-15T11:20:47.583Z,77.49
2024-02-15T11:21:47.510Z,79.53
2024-02-15T11:22:47.494Z,79.17
2024-02-15T11:23:47.665Z,78.04
2024-02-15T11:24:47.536Z,80.26
2024-02-15T11:25:47.501Z,80.20
2024-02-15T11:26:47.538Z,80.65
2024-02-15T11:27:47.517Z,79.46
2024-02-15T11:28:47.501Z,79.30
2024-02-15T11:29:47.514Z,80.82
2024-02-15T11:30:47.490Z,82.37
2024-02-15T11:31:47.505Z,81.66
2024-02-15T11:32:47.546Z,82.42
2024-02-15T11:33:47.720Z,82.05
2024-02-15T11:34:47.674Z,80.73
2024-02-15T11:35:47.559Z,80.77
2024-02-15T11:36:47.550Z,79.79
2024-02-15T11:37:47.527Z,80.00
2024-02-15T11:38:47.568Z,79.65
2024-02-15T11:39:47.554Z,80.44
2024-02-15T11:40:47.534Z,78.27
2024-02-15T11:41:47.598Z,79.19
2024-02-15T11:42:47.549Z,78.35
2024-02-15T11:43:47.547Z,78.49
2024-02-15T11:44:47.563Z,78.98
2024-02-15T11:45:47.554Z,79.46
2024-02-15T11:46:47.546Z,80.06
2024-02-15T11:47:47.597Z,80.34
2024-02-15T11:48:47.670Z,78.86
2024-02-15T11:49:47.564Z,79.84
2024-02-15T11:50:47.575Z,77.56
2024-02-15T11:51:47.552Z,81.91
2024-02-15T11:52:47.550Z,79.80
2024-02-15T11:53:47.581Z,81.99
2024-02-15T11:54:47.576Z,78.64
2024-02-15T11:55:47.559Z,77.01
2024-02-15T11:56:49.825Z,79.27
2024-02-15T11:57:47.556Z,81.01
2024-02-15T11:58:47.552Z,81.84
2024-02-15T11:59:47.599Z,78.96
2024-02-15T12:00:47.597Z,80.90
2024-02-15T12:01:47.556Z,82.19
2024-02-15T12:02:48.437Z,81.23
2024-02-15T12:03:57.152Z,81.30
2024-02-15T12:04:48.579Z,81.38
2024-02-15T12:05:47.708Z,81.52
2024-02-15T12:06:48.065Z,82.19
2024-02-15T12:07:47.593Z,83.29
2024-02-15T12:08:47.627Z,81.86
2024-02-15T12:09:47.596Z,81.80
2024-02-15T12:10:47.609Z,82.88
2024-02-15T12:11:47.636Z,82.64
2024-02-15T12:12:47.607Z,83.72
2024-02-15T12:13:47.583Z,85.14
2024-02-15T12:14:47.624Z,82.91
2024-02-15T12:15:47.587Z,83.60
2024-02-15T12:16:47.589Z,83.65
2024-02-15T12:17:47.728Z,84.07
2024-02-15T12:18:47.854Z,81.14
2024-02-15T12:19:47.689Z,83.74
2024-02-15T12:20:47.638Z,84.23
2024-02-15T12:21:47.633Z,82.00
2024-02-15T12:22:47.603Z,80.64
2024-02-15T12:23:47.723Z,83.57
2024-02-15T12:24:47.634Z,81.24
2024-02-15T12:25:47.610Z,84.20
2024-02-15T12:26:47.690Z,82.49
2024-02-15T12:27:47.744Z,81.18
2024-02-15T12:28:48.842Z,82.41
2024-02-15T12:29:47.643Z,83.44
2024-02-15T12:30:47.622Z,80.66
2024-02-15T12:31:47.619Z,83.76
2024-02-15T12:32:47.732Z,85.86
2024-02-15T12:33:47.756Z,82.17
2024-02-15T12:34:47.666Z,81.53
2024-02-15T12:35:47.693Z,83.13
2024-02-15T12:36:47.638Z,83.24
2024-02-15T12:37:47.636Z,83.52
2024-02-15T12:38:47.662Z,83.69
2024-02-15T12:39:47.639Z,82.86
2024-02-15T12:40:48.726Z,84.63
2024-02-15T12:41:47.722Z,79.70
2024-02-15T12:42:47.660Z,83.17
2024-02-15T12:43:47.641Z,83.47
2024-02-15T12:44:47.821Z,86.60
2024-02-15T12:45:47.674Z,84.71
2024-02-15T12:46:47.705Z,86.40
2024-02-15T12:47:47.828Z,84.62
2024-02-15T12:48:47.844Z,85.31
2024-02-15T12:49:47.846Z,80.90
2024-02-15T12:50:47.776Z,83.59
2024-02-15T12:51:47.777Z,84.91
2024-02-15T12:52:47.792Z,84.68